Henrique Guimarães

Scout - Fluminense
3 Apr 2027
Samstag
Verarbeitung

Persönlichkeit

Anpassungsfähigkeit (10) Ehrgeiz (19) Kontroverse (20) Loyalität (13) Druck (9) Professionalität (17) Fairness (5) Temperament (13)

Profil

Trainerstil Demokratisch
Lizenz Kontinentale B
Entschlossenheit 9
Menschenführung 14
Motivation 5
Disziplin 15
Arbeitszufriedenheit
98%
Ermüdung
0%
Rolle Scout
Gehalt 66.2K p/W
Vertrag 14.03.2028

Leistung

Verhalten Gut
Trainingseffektivität
53%
Spielerentwicklung
60%
Verletzungsprävention
50%
Taktische Umsetzung
50%

Letzte Ereignisse

Spieler begutachtet jetzt
Nahm an einer Scouting-Besprechung teil jetzt
Spieler begutachtet jetzt
Spieler begutachtet jetzt
Spieler begutachtet 7T her
Spieler begutachtet 7T her
Spieler begutachtet 7T her
Spieler begutachtet 7T her

Aktuell beobachtet

217
Spieler Verein Status Fähigkeit Vertrauen Beobachtet Zuletzt beobachtet Letzte Stimme
Michy Fellaini KV Oostende Aktiv 131 / 128 40% 7 02.04.2027 -
Aitor Ruibal Betis Aktiv 143 / 132 40% 4 02.04.2027 -
João Teixeira Porto Aktiv 105 / 117 40% 1 01.04.2027 -
Moncef Zekri Sporting CP Aktiv 90 / 109 40% 1 01.04.2027 -
Rhys Chadwick Peterborough United Aktiv 104 / 102 40% 1 01.04.2027 -
Leandro Andrade Polissia Aktiv 134 / 133 40% 2 31.03.2027 -
Zizo Al Ahly Aktiv 132 / 139 40% 1 31.03.2027 -
Alan KAA Gent Aktiv 132 / 141 40% 1 31.03.2027 -
Iqraam Rayners Mamelodi Sundowns Aktiv 138 / 122 40% 7 30.03.2027 -
Kauã Elias Shakhtar Aktiv 125 / 136 40% 10 30.03.2027 -
Boulaye Dia Lazio Aktiv 137 / 138 40% 6 30.03.2027 -
Christian Kouamé Aris Thessaloniki Aktiv 127 / 118 40% 10 29.03.2027 -
José Manuel López Palmeiras Aktiv 132 / 136 40% 4 29.03.2027 -
Wesley Saïd RC Lens Aktiv 142 / 125 40% 6 28.03.2027 -
Cristian Shpendi Cesena Aktiv 131 / 120 40% 3 28.03.2027 -
Jason Januzaj Mouscron Aktiv 154 / 157 40% 1 28.03.2027 -
Soufiane Rahimi Al Ain Aktiv 140 / 147 40% 8 27.03.2027 -
Jonathan Rowe Bologna Aktiv 139 / 125 40% 4 27.03.2027 -
Rabby Nzingoula West Bromwich Albion Aktiv 121 / 137 40% 1 27.03.2027 -
Miguel Figueiredo Benfica Aktiv 114 / 114 40% 1 27.03.2027 -
Felipe Augusto Zenit Aktiv 141 / 125 40% 6 25.03.2027 -
Rafiu Durosinmi Racing Genk Aktiv 132 / 125 40% 5 25.03.2027 -
Dany Mota Monza Aktiv 130 / 142 40% 8 24.03.2027 -
Kiril Despodov PAOK Aktiv 127 / 118 40% 3 24.03.2027 -
Luka Jović AEK Aktiv 144 / 133 40% 5 23.03.2027 -
Giovanni Simeone Torino Aktiv 137 / 144 40% 3 23.03.2027 -
Jonas Wind Braga Aktiv 142 / 133 40% 1 21.03.2027 -
Jean-Luc Morin Tours Aktiv 138 / 130 40% 1 20.03.2027 -
Facundo Torres Shakhtar Aktiv 134 / 124 40% 2 19.03.2027 -
Lukáš Provod Slavia Prague Aktiv 150 / 154 40% 4 19.03.2027 -
Sebastián Córdova Pumas UNAM Aktiv 132 / 124 40% 4 18.03.2027 -
Marcel Ruiz Toluca Aktiv 145 / 139 40% 5 18.03.2027 -
Yanis Begraoui Estoril Praia Aktiv 131 / 126 40% 4 18.03.2027 -
Carlos Vinícius Grêmio Aktiv 138 / 142 40% 8 15.03.2027 -
Clayton Olympiacos Aktiv 129 / 125 40% 7 14.03.2027 -
Manfred Ugalde Spartak Moscow Aktiv 128 / 138 40% 2 13.03.2027 -
Anthony Patterson Wrexham Aktiv 137 / 125 40% 4 12.03.2027 -
Adriel Torreense Aktiv 125 / 107 40% 2 12.03.2027 -
Nathan Bishop AFC Wimbledon Aktiv 106 / 105 40% 1 12.03.2027 -
Hwang In-Beom Porto Aktiv 145 / 154 40% 4 11.03.2027 -
Orbelín Pineda Monterrey Aktiv 141 / 135 40% 3 11.03.2027 -
Cezary Miszta Rio Ave Aktiv 127 / 126 40% 5 10.03.2027 -
Lukas Jensen Millwall Aktiv 115 / 123 40% 3 10.03.2027 -
Edoardo Corvi Parma Aktiv 129 / 131 40% 1 10.03.2027 -
Ivan Toney Al-Ahli Aktiv 153 / 150 40% 1 09.03.2027 -
Michael Cooper Sheffield United Aktiv 132 / 127 40% 4 07.03.2027 -
Jordan Amissah Burton Albion Aktiv 105 / 113 40% 1 07.03.2027 -
Cesar Corona Veracruz Aktiv 138 / 141 40% 9 05.03.2027 -
João Palhinha Benfica Aktiv 151 / 142 40% 5 05.03.2027 -
Ernest Muçi Trabzonspor Aktiv 126 / 128 40% 2 05.03.2027 -
Malcom Al Jazira Aktiv 155 / 136 40% 2 05.03.2027 -
Alejandro Zendejas Club America Aktiv 146 / 133 40% 1 04.03.2027 -
Luca Orellano Monterrey Aktiv 138 / 135 40% 7 02.03.2027 -
Efraín Álvarez Guadalajara Aktiv 137 / 126 40% 1 02.03.2027 -
Alexey Miranchuk Newcastle United Aktiv 138 / 138 40% 1 28.02.2027 -
Raúl García Osasuna Aktiv 141 / 130 40% 1 28.02.2027 -
Myles Roberts Doncaster Rovers Aktiv 99 / 98 40% 1 28.02.2027 -
Lorenzo Palmisani Frosinone Aktiv 128 / 131 40% 1 25.02.2027 -
Yuri Alberto Corinthians Aktiv 144 / 139 40% 1 25.02.2027 -
Marcelo Allende Mamelodi Sundowns Aktiv 135 / 134 40% 1 23.02.2027 -
Breel Embolo Brighton Aktiv 138 / 132 40% 1 22.02.2027 -
Pol Tristán Bradford City Aktiv 120 / 107 40% 1 21.02.2027 -
Vitor Hugo Lusitânia Lourosa Aktiv 101 / 99 40% 1 21.02.2027 -
Jesús Ricardo Angulo Toluca Aktiv 131 / 128 40% 4 19.02.2027 -
Nemanja Radonjić Crvena Zvezda Aktiv 130 / 135 40% 4 19.02.2027 -
Murphy Cooper Plymouth Argyle Aktiv 115 / 118 40% 2 17.02.2027 -
Leo Kokubo Sint-Truiden Aktiv 113 / 104 40% 1 17.02.2027 -
Chiquinho Alverca Aktiv 131 / 116 40% 1 16.02.2027 -
Yuki Kakita FC Copenhagen Aktiv 133 / 128 40% 2 15.02.2027 -
Abdullah Juma Al Ahli Aktiv 131 / 122 40% 2 13.02.2027 -
Henry Mosquera Bragantino Aktiv 134 / 136 40% 2 12.02.2027 -
Andreas Schjelderup Benfica Aktiv 134 / 132 40% 1 12.02.2027 -
Petar Stanić Ludogorets Aktiv 144 / 140 40% 1 12.02.2027 -
Helinho Toluca Aktiv 135 / 132 40% 3 11.02.2027 -
Matheus Pereira Cruzeiro Aktiv 138 / 148 40% 3 11.02.2027 -
Haissem Hassan Bloemfontein Celtic Aktiv 137 / 136 40% 2 11.02.2027 -
Diego Rossi Monterrey Aktiv 139 / 139 40% 1 06.02.2027 -
Aral Şimşir Trabzonspor Aktiv 130 / 129 40% 3 03.02.2027 -
Exequiel Zeballos Boca Juniors Aktiv 134 / 128 40% 2 31.01.2027 -
Uwe Franke Mouscron Aktiv 126 / 120 40% 2 29.01.2027 -
Kein Sato FC Tokyo Aktiv 138 / 141 40% 3 26.01.2027 -
João Carvalho Estoril Praia Aktiv 139 / 127 40% 1 26.01.2027 -
Leroy Sané Galatasaray Aktiv 161 / 163 40% 1 26.01.2027 -
Daniel Bragança Sporting CP Aktiv 135 / 146 40% 1 25.01.2027 -
Gabriel Brazão Santos Aktiv 131 / 139 40% 8 23.01.2027 -
Bernardo Fontes Braga Aktiv 124 / 138 40% 5 23.01.2027 -
Francis Amuzu Grêmio Aktiv 133 / 128 40% 3 23.01.2027 -
George Wickens Lincoln City Aktiv 118 / 116 40% 2 23.01.2027 -
Marquinhos Spartak Moscow Aktiv 135 / 120 40% 2 20.01.2027 -
Axel Openda KV Oostende Aktiv 131 / 125 40% 1 20.01.2027 -
Isidro Pitta Bragantino Aktiv 130 / 126 40% 7 17.01.2027 -
Vitinha Genoa Aktiv 136 / 139 40% 2 17.01.2027 -
Pablo Rosario Porto Aktiv 132 / 134 40% 6 15.01.2027 -
Santi García Gil Vicente Aktiv 138 / 133 40% 3 15.01.2027 -
Akor Adams Venezia Aktiv 144 / 143 40% 2 15.01.2027 -
Agustín Palavecino Cruz Azul Aktiv 135 / 143 40% 1 13.01.2027 -
Patrick Sequeira Casa Pia Aktiv 125 / 118 40% 6 11.01.2027 -
Evidence Billiat Ajax Cape Town Aktiv 106 / 101 40% 1 11.01.2027 -
João Valido Chaves Aktiv 106 / 104 40% 2 03.01.2027 -
Luciano Juba Bahia Aktiv 133 / 137 40% 3 29.12.2026 -
Leo Ceara Kashima Antlers Aktiv 140 / 138 40% 2 26.12.2026 -
Moussa Dembélé Al-Ettifaq Aktiv 135 / 127 40% 2 21.12.2026 -
Tomáš Chorý Slavia Prague Aktiv 136 / 138 40% 1 20.12.2026 -
Reda Khadra Qarabag Aktiv 132 / 128 40% 1 17.12.2026 -
Gérson Cruzeiro Aktiv 143 / 133 40% 1 17.12.2026 -
Roger Brugué Levante Aktiv 132 / 125 40% 2 10.12.2026 -
Gorka Guruzeta Athletic Bilbao Aktiv 148 / 154 40% 2 07.12.2026 -
Enes Ünal Getafe Aktiv 141 / 126 40% 2 03.12.2026 -
Dani Raba Valencia Aktiv 140 / 141 40% 1 03.12.2026 -
Maik Sport Recife Abgelehnt 122 / 120 79% 1 02.12.2026 -
Germán Berterame Inter Miami CF Aktiv 137 / 140 40% 1 02.12.2026 -
Juan Otero Gijón Aktiv 129 / 137 40% 1 02.12.2026 -
Jonathan Calleri Sport Recife Abgelehnt 131 / 138 79% 1 01.12.2026 -
Karim Konaté Red Bull Salzburg Aktiv 128 / 131 40% 1 01.12.2026 -
Leonardo Lelo Braga Aktiv 130 / 132 40% 5 29.11.2026 -
Paulo Henrique Vasco da Gama Aktiv 128 / 130 40% 3 29.11.2026 -
Luciano Gondou CSKA Moscow Aktiv 131 / 136 40% 1 29.11.2026 -
Jesús Orozco Chiquete Cruz Azul Aktiv 129 / 138 40% 1 29.11.2026 -
Lazar Carević Famalicao Aktiv 132 / 139 40% 3 28.11.2026 -
Álex Remiro Real Sociedad Aktiv 150 / 159 40% 6 28.11.2026 -
Sebastián Meza Huracán Aktiv 124 / 120 40% 3 26.11.2026 -
Gustavo Silva Vitoria Guimaraes Aktiv 129 / 131 40% 3 26.11.2026 -
Yousef Salech Cardiff City Aktiv 133 / 129 40% 1 26.11.2026 -
Gustaf Lagerbielke Braga Aktiv 132 / 126 40% 3 23.11.2026 -
Caio Alexandre Bahia Aktiv 139 / 126 40% 2 23.11.2026 -
Jonmi Magunagoitia Eibar Aktiv 123 / 127 40% 3 23.11.2026 -
Josh Keeley Luton Town Aktiv 125 / 130 40% 2 23.11.2026 -
Jakub Stolarczyk Leicester City Aktiv 128 / 143 40% 3 22.11.2026 -
Zé Leite Oliveirense Aktiv 111 / 126 40% 3 20.11.2026 -
Camilo Durán Bloemfontein Celtic Aktiv 125 / 126 40% 2 20.11.2026 -
Korede Osundina Casa Pia Aktiv 116 / 123 40% 1 20.11.2026 -
Vitinho Botafogo Aktiv 140 / 142 40% 4 19.11.2026 -
Sam Tickle Wigan Athletic Aktiv 128 / 116 40% 3 19.11.2026 -
Lyanco Atlético Mineiro Aktiv 136 / 134 40% 1 18.11.2026 -
Héctor Bellerín Betis Aktiv 136 / 133 40% 1 18.11.2026 -
Javi Sánchez Arouca Aktiv 132 / 133 40% 1 18.11.2026 -
Ezequiel Centurión River Plate Aktiv 125 / 121 40% 1 17.11.2026 -
Henrique Araújo Casa Pia Aktiv 114 / 123 40% 2 16.11.2026 -
Itumeleng Tau Ajax Cape Town Aktiv 120 / 112 40% 1 16.11.2026 -
Hugo Souza Corinthians Aktiv 131 / 131 40% 8 14.11.2026 -
Alfonso Pastor Maritimo Aktiv 105 / 113 40% 2 14.11.2026 -
Enzo Díaz Sport Recife Aktiv 133 / 141 40% 2 14.11.2026 -
Lucas Piton Vasco da Gama Aktiv 134 / 128 40% 2 14.11.2026 -
Joaquín Piquerez Palmeiras Aktiv 131 / 135 40% 1 12.11.2026 -
Bright Arrey-Mbi Braga Aktiv 129 / 140 40% 4 11.11.2026 -
Federico Pereira Toluca Aktiv 138 / 134 40% 1 11.11.2026 -
Kenny Tete Fulham Abgelehnt 139 / 140 40% 1 11.11.2026 Mehr Infos nötig
João Costa Santa Clara Aktiv 104 / 111 40% 2 09.11.2026 -
Jon Karrikaburu Burgos Aktiv 130 / 124 40% 1 09.11.2026 -
Jorge Meireles AVS Aktiv 116 / 117 40% 2 08.11.2026 -
Figueiredo Alverca Aktiv 134 / 134 40% 1 08.11.2026 -
Juan Soriano Académico de Viseu Aktiv 122 / 117 40% 4 07.11.2026 -
Carl Rushworth Coventry City Aktiv 131 / 130 40% 4 07.11.2026 -
Ismaël Bennacer Palmeiras Aktiv 145 / 150 40% 2 06.11.2026 -
Antonio Sivera Alavés Aktiv 144 / 135 40% 4 06.11.2026 -
Sikou Niakaté Braga Aktiv 132 / 142 40% 3 03.11.2026 -
Luis Romo Guadalajara Aktiv 136 / 146 40% 1 03.11.2026 -
Jan Bednarek Porto Aktiv 140 / 149 40% 3 01.11.2026 -
Jon Guridi Sevilla Aktiv 135 / 129 40% 2 01.11.2026 -
Renan Lodi Atlético Mineiro Aktiv 134 / 136 40% 1 01.11.2026 -
Percy Erasmus SuperSport United Aktiv 121 / 125 40% 1 31.10.2026 -
Alexandre Duville-Parsemain Moreirense Aktiv 106 / 119 40% 1 31.10.2026 -
Carlos Acevedo Santos Laguna Aktiv 127 / 133 40% 2 30.10.2026 -
Jean America de Cali Aktiv 132 / 131 40% 4 29.10.2026 -
Radek Vítek Middlesbrough Aktiv 135 / 128 40% 3 29.10.2026 -
Fabrício Bruno Cruzeiro Aktiv 135 / 128 40% 2 29.10.2026 -
Luis Ingolotti Atlético Tucumán Aktiv 124 / 114 40% 1 27.10.2026 -
Marcos Antonio Sport Recife Aktiv 139 / 141 40% 2 25.10.2026 -
Sergi Altimira Sporting CP Aktiv 133 / 150 40% 1 25.10.2026 -
Dean Henderson Crystal Palace Aktiv 156 / 135 40% 3 23.10.2026 -
Aarón Escandell Oviedo Aktiv 128 / 134 40% 1 23.10.2026 -
William Cruzeiro Aktiv 135 / 130 40% 1 22.10.2026 -
Matheus Henrique Cruzeiro Aktiv 129 / 141 40% 1 21.10.2026 -
Pablo Ramón Racing Club Aktiv 130 / 129 40% 1 21.10.2026 -
Dayne St. Clair Inter Miami CF Aktiv 123 / 127 40% 5 19.10.2026 -
Tomás Marchiori Vélez Aktiv 132 / 136 40% 2 18.10.2026 -
Gabriel Batista Botafogo Aktiv 129 / 133 40% 1 17.10.2026 -
Nathan Trott Cardiff City Aktiv 121 / 129 40% 1 15.10.2026 -
Ignacio de Arruabarrena Arouca Aktiv 124 / 120 40% 3 13.10.2026 -
Alfonso Trezza Arouca Aktiv 118 / 109 40% 2 10.10.2026 -
Vinícius Lopes Santa Clara Aktiv 125 / 128 40% 1 10.10.2026 -
Sydney van Hooijdonk Estrela da Amadora Aktiv 113 / 103 40% 1 09.10.2026 -
Tadeo Allende Inter Miami CF Aktiv 125 / 126 40% 1 09.10.2026 -
Zack Steffen Colorado Rapids Aktiv 126 / 126 40% 2 04.10.2026 -
Alan Velasco Boca Juniors Aktiv 129 / 137 40% 1 04.10.2026 -
James Trafford Leeds United Aktiv 143 / 141 40% 1 04.10.2026 -
Tamble Monteiro Rio Ave Aktiv 116 / 129 40% 2 30.09.2026 -
Louis Munteanu DC United Aktiv 125 / 117 40% 1 30.09.2026 -
Eduardo Quaresma Sporting CP Aktiv 143 / 138 40% 2 27.09.2026 -
Nehuén Pérez Porto Aktiv 135 / 147 40% 2 26.09.2026 -
Vitor Carvalho Braga Aktiv 138 / 122 40% 1 26.09.2026 -
Willer Ditta Cruz Azul Aktiv 131 / 143 40% 1 24.09.2026 -
Mauro Arambarri River Plate Aktiv 151 / 157 40% 3 22.09.2026 -
Alessandro Circati Benfica Aktiv 127 / 139 40% 1 21.09.2026 -
Arthur Palmeiras Aktiv 139 / 131 40% 1 21.09.2026 -
Nicolás Fernández Mercau New York City Aktiv 131 / 130 40% 1 21.09.2026 -
Leandro Barreiro Benfica Aktiv 136 / 143 40% 2 19.09.2026 -
Mathías Villasanti Grêmio Aktiv 130 / 139 40% 2 16.09.2026 -
Jean Lucas Bahia Aktiv 141 / 126 40% 1 16.09.2026 -
Bénie Traoré New York City Aktiv 125 / 117 40% 1 15.09.2026 -
Liel Abada Charlotte Football Club Aktiv 129 / 136 40% 1 15.09.2026 -
Zeno Debast Sporting CP Aktiv 146 / 154 40% 2 14.09.2026 -
Drake Callender Minnesota United FC Aktiv 122 / 125 40% 1 13.09.2026 -
Chris Brady Chicago Fire Aktiv 131 / 129 40% 1 12.09.2026 -
Tiago Silva Penafiel Aktiv 107 / 118 40% 1 11.09.2026 -
Sebastian Hernandez Cortulua Aktiv 120 / 112 40% 1 11.09.2026 -
Giorgos Koutsias Famalicao Aktiv 114 / 114 40% 2 06.09.2026 -
Dylan Nandín Arouca Aktiv 104 / 101 40% 1 02.09.2026 -
Joseph Nduquidi Farense Aktiv 102 / 120 40% 1 06.08.2026 -
Josh Wynder Benfica Aktiv 99 / 124 40% 1 06.08.2026 -
Pedro Lima Wolverhampton Aktiv 105 / 130 40% 2 05.08.2026 -
Héctor Fort Real Sociedad Aktiv 138 / 134 40% 1 05.08.2026 -
Tiago Freitas Benfica Aktiv 107 / 117 40% 1 05.08.2026 -
Xavi Grande Levante Aktiv 112 / 127 40% 1 04.08.2026 -
Troy Parrott Betis Aktiv 131 / 135 40% 1 04.08.2026 -
Roberto Fernández Braga Aktiv 131 / 151 40% 1 04.08.2026 -
Nicolás Ibáñez Cruz Azul Aktiv 140 / 139 40% 1 01.08.2026 -